Time;durP1;ratioP1;P1;durP2;ratioP2;P2;SDS_P1;SDS_P2;PMS_P1;PMS_P2;Temp;Humidity;BMP_temperature;BMP_pressure;BME280_temperature;BME280_humidity;BME280_pressure;Samples;Min_cycle;Max_cycle;Signal;HPM_P1;HPM_P2
2023/04/23 00:01:19;;;;;;;5.03;4.13;;;8.20;99.90;7.30;99993;;;;572856;246;24082;-76
2023/04/23 00:03:47;;;;;;;6.00;4.27;;;8.20;99.90;7.30;99992;;;;573104;246;24132;-75
2023/04/23 00:06:18;;;;;;;7.67;3.57;;;8.20;99.90;7.30;99985;;;;572821;246;24112;-75
2023/04/23 00:08:42;;;;;;;7.83;4.30;;;8.20;99.90;7.30;99982;;;;572467;246;24125;-75
2023/04/23 00:11:13;;;;;;;7.73;4.00;;;8.30;99.90;7.30;99984;;;;572986;246;24078;-74
2023/04/23 00:13:38;;;;;;;5.37;4.30;;;8.30;99.90;7.30;99982;;;;576116;246;24138;-74
2023/04/23 00:16:09;;;;;;;5.07;3.90;;;8.30;99.90;7.30;99978;;;;573172;246;24141;-75
2023/04/23 00:18:33;;;;;;;4.37;3.57;;;8.20;99.90;7.30;99978;;;;572735;246;24133;-79
2023/04/23 00:21:01;;;;;;;4.73;3.57;;;8.20;99.90;7.30;99980;;;;573117;246;24120;-77
2023/04/23 00:23:29;;;;;;;4.20;3.60;;;8.20;99.90;7.30;99981;;;;574622;246;24209;-77
2023/04/23 00:25:57;;;;;;;3.67;3.17;;;8.20;99.90;7.30;99970;;;;574111;246;24065;-75
2023/04/23 00:28:26;;;;;;;4.03;3.23;;;8.20;99.90;7.30;99970;;;;573906;246;24090;-76
2023/04/23 00:30:54;;;;;;;5.73;4.03;;;8.20;99.90;7.20;99967;;;;573786;246;24073;-75
2023/04/23 00:33:22;;;;;;;6.07;3.53;;;8.20;99.90;7.30;99967;;;;569697;246;24144;-75
2023/04/23 00:35:51;;;;;;;7.93;3.60;;;8.20;99.90;7.20;99969;;;;568884;246;24066;-75
2023/04/23 00:38:20;;;;;;;8.50;4.63;;;8.20;99.90;7.20;99966;;;;573148;246;24087;-80
2023/04/23 00:40:50;;;;;;;6.40;4.20;;;8.20;99.90;7.30;99964;;;;573367;246;24092;-73
2023/04/23 00:43:14;;;;;;;7.33;4.23;;;8.20;99.90;7.30;99965;;;;573267;246;24080;-80
2023/04/23 00:45:43;;;;;;;7.37;4.20;;;8.20;99.90;7.30;99964;;;;568590;245;24137;-79
2023/04/23 00:48:11;;;;;;;5.47;4.33;;;8.20;99.90;7.30;99953;;;;573594;246;24068;-79
2023/04/23 00:50:39;;;;;;;7.93;3.80;;;8.30;99.90;7.30;99948;;;;569905;246;24229;-74
2023/04/23 00:53:07;;;;;;;4.40;3.97;;;8.20;99.90;7.40;99953;;;;577196;246;24280;-74
2023/04/23 00:55:38;;;;;;;4.93;3.50;;;8.30;99.90;7.40;99949;;;;573370;246;24079;-74
2023/04/23 00:58:06;;;;;;;11.37;4.70;;;8.30;99.90;7.40;99959;;;;572908;246;24096;-73
2023/04/23 01:00:31;;;;;;;5.50;4.00;;;8.30;99.90;7.40;99953;;;;572649;246;24088;-75
2023/04/23 01:03:00;;;;;;;9.53;4.17;;;8.30;99.90;7.30;99954;;;;572964;246;24108;-75
2023/04/23 01:05:27;;;;;;;14.10;3.83;;;8.30;99.90;7.30;99950;;;;572738;246;24061;-74
2023/04/23 01:07:56;;;;;;;11.03;4.17;;;8.30;99.90;7.30;99948;;;;572657;246;24131;-74
2023/04/23 01:10:23;;;;;;;5.37;3.97;;;8.30;99.90;7.30;99948;;;;573063;246;24074;-75
2023/04/23 01:12:51;;;;;;;6.83;3.93;;;8.30;99.90;7.30;99937;;;;573036;246;24077;-74
2023/04/23 01:15:19;;;;;;;6.33;4.13;;;8.30;99.90;7.30;99945;;;;573040;246;24136;-74
2023/04/23 01:17:47;;;;;;;7.93;4.20;;;8.20;99.90;7.30;99938;;;;563337;252;24111;-79
2023/04/23 01:20:15;;;;;;;8.50;4.23;;;8.20;99.90;7.30;99941;;;;567802;247;24142;-79
2023/04/23 01:22:43;;;;;;;9.97;4.33;;;8.20;99.90;7.30;99942;;;;572697;246;24077;-77
2023/04/23 01:25:11;;;;;;;7.37;4.20;;;8.20;99.90;7.30;99949;;;;572695;246;24067;-75
2023/04/23 01:27:42;;;;;;;7.90;3.63;;;8.20;99.90;7.30;99947;;;;572772;246;24075;-74
2023/04/23 01:30:07;;;;;;;10.83;4.17;;;8.30;99.90;7.30;99944;;;;572414;246;24075;-79
2023/04/23 01:32:35;;;;;;;4.43;4.03;;;8.30;99.90;7.30;99937;;;;572846;246;24121;-76
2023/04/23 01:35:03;;;;;;;6.47;3.43;;;8.30;99.90;7.30;99932;;;;571452;246;24070;-74
2023/04/23 01:37:34;;;;;;;9.80;4.87;;;8.20;99.90;7.30;99935;;;;582549;245;24075;-73
2023/04/23 01:39:59;;;;;;;8.03;4.37;;;8.20;99.90;7.20;99935;;;;573513;246;24105;-74
2023/04/23 01:42:27;;;;;;;5.60;4.40;;;8.20;99.90;7.20;99932;;;;573262;246;24062;-80
2023/04/23 01:44:55;;;;;;;4.43;3.37;;;8.10;99.90;7.20;99931;;;;573401;246;24076;-74
2023/04/23 01:47:23;;;;;;;8.43;4.17;;;8.10;99.90;7.20;99936;;;;573414;246;24255;-77
2023/04/23 01:49:51;;;;;;;7.93;4.17;;;8.10;99.90;7.20;99931;;;;573750;246;24107;-79
2023/04/23 01:52:19;;;;;;;7.07;4.27;;;8.10;99.90;7.30;99934;;;;573567;246;24121;-75
2023/04/23 01:54:47;;;;;;;8.00;4.10;;;8.20;99.90;7.30;99928;;;;573487;246;24085;-78
2023/04/23 01:57:15;;;;;;;7.57;4.47;;;8.20;99.90;7.30;99915;;;;573415;246;24061;-74
2023/04/23 01:59:47;;;;;;;5.87;3.80;;;8.20;99.90;7.20;99921;;;;572978;246;24120;-74
2023/04/23 02:02:12;;;;;;;7.90;4.07;;;8.10;99.90;7.20;99917;;;;572785;246;24102;-74
2023/04/23 02:04:40;;;;;;;6.97;5.27;;;8.10;99.90;7.20;99915;;;;573121;246;24176;-73
2023/04/23 02:07:09;;;;;;;10.17;4.43;;;8.10;99.90;7.20;99916;;;;569007;246;24097;-73
2023/04/23 02:09:39;;;;;;;7.87;4.50;;;8.10;99.90;7.20;99913;;;;572949;246;24057;-74
2023/04/23 02:12:05;;;;;;;8.67;4.47;;;8.10;99.90;7.20;99904;;;;572551;241;24128;-75
2023/04/23 02:14:32;;;;;;;8.47;3.93;;;8.10;99.90;7.10;99909;;;;572887;246;24092;-73
2023/04/23 02:17:01;;;;;;;6.00;4.67;;;8.00;99.90;7.10;99909;;;;572822;246;24090;-75
2023/04/23 02:19:33;;;;;;;5.07;3.90;;;8.00;99.90;7.20;99914;;;;572784;246;24062;-74
2023/04/23 02:21:57;;;;;;;9.63;4.53;;;8.00;99.90;7.20;99914;;;;573009;246;24125;-73
2023/04/23 02:24:26;;;;;;;5.13;4.17;;;8.10;99.90;7.30;99907;;;;573220;246;24089;-75
2023/04/23 02:26:54;;;;;;;4.87;4.40;;;8.10;99.90;7.30;99902;;;;573181;246;24071;-76
2023/04/23 02:29:22;;;;;;;6.43;4.67;;;8.10;99.90;7.30;99896;;;;573253;246;24123;-78
2023/04/23 02:31:50;;;;;;;6.97;4.33;;;8.10;99.90;7.20;99901;;;;573178;246;24075;-76
2023/04/23 02:34:18;;;;;;;6.37;4.43;;;8.20;99.90;7.20;99900;;;;573289;246;24084;-77
2023/04/23 02:36:46;;;;;;;7.43;5.07;;;8.10;99.90;7.10;99897;;;;573246;246;24124;-77
2023/04/23 02:39:14;;;;;;;6.43;4.37;;;8.10;99.90;7.10;99902;;;;573274;246;24084;-76
2023/04/23 02:41:42;;;;;;;8.83;4.53;;;8.00;99.90;7.10;99893;;;;572727;246;24146;-76
2023/04/23 02:44:10;;;;;;;7.00;5.00;;;8.00;99.90;7.10;99893;;;;572865;246;24083;-79
2023/04/23 02:46:37;;;;;;;6.83;4.73;;;8.00;99.90;7.10;99890;;;;574304;246;24073;-79
2023/04/23 02:49:05;;;;;;;9.57;4.83;;;8.00;99.90;7.10;99887;;;;573715;246;24054;-76
2023/04/23 02:51:33;;;;;;;7.70;4.67;;;8.00;99.90;7.00;99892;;;;574006;246;24114;-74
2023/04/23 02:54:02;;;;;;;7.30;4.50;;;7.90;99.90;7.00;99888;;;;569158;245;24066;-77
2023/04/23 02:56:30;;;;;;;9.00;5.10;;;7.80;99.90;6.90;99881;;;;573613;246;24070;-79
2023/04/23 02:58:58;;;;;;;9.53;5.40;;;7.80;99.90;6.90;99886;;;;573292;246;24125;-77
2023/04/23 03:01:26;;;;;;;9.17;5.63;;;7.80;99.90;6.90;99883;;;;573395;246;24091;-76
2023/04/23 03:03:57;;;;;;;10.13;5.10;;;7.80;99.90;6.80;99880;;;;573210;246;24068;-75
2023/04/23 03:06:21;;;;;;;5.67;5.07;;;7.70;99.90;6.70;99887;;;;572913;246;24205;-74
2023/04/23 03:08:49;;;;;;;7.63;4.70;;;7.70;99.90;6.60;99885;;;;573191;246;24111;-76
2023/04/23 03:11:21;;;;;;;6.80;5.03;;;7.60;99.90;6.60;99882;;;;573115;246;24058;-78
2023/04/23 03:13:45;;;;;;;7.67;4.50;;;7.50;99.90;6.60;99882;;;;572579;246;24220;-77
2023/04/23 03:16:13;;;;;;;9.90;5.33;;;7.50;99.90;6.60;99876;;;;573320;246;24129;-79
2023/04/23 03:18:41;;;;;;;7.60;5.63;;;7.50;99.90;6.60;99877;;;;573189;246;24133;-80
2023/04/23 03:21:09;;;;;;;6.60;4.27;;;7.50;99.90;6.50;99870;;;;573222;246;24053;-80
2023/04/23 03:23:37;;;;;;;8.37;5.10;;;7.50;99.90;6.50;99870;;;;573146;246;24076;-80
2023/04/23 03:26:05;;;;;;;12.63;6.27;;;7.40;99.90;6.40;99865;;;;573259;246;24150;-80
2023/04/23 03:28:33;;;;;;;9.90;5.07;;;7.40;99.90;6.40;99860;;;;573305;246;24112;-77
2023/04/23 03:31:00;;;;;;;8.53;5.07;;;7.30;99.90;6.40;99862;;;;573441;246;24144;-73
2023/04/23 03:33:28;;;;;;;12.03;6.03;;;7.40;99.90;6.40;99859;;;;573269;246;24112;-79
2023/04/23 03:35:57;;;;;;;10.00;5.63;;;7.40;99.90;6.50;99858;;;;573327;246;24075;-75
2023/04/23 03:38:25;;;;;;;9.70;5.60;;;7.30;99.90;6.50;99860;;;;573203;246;24070;-75
2023/04/23 03:40:53;;;;;;;7.17;5.60;;;7.40;99.90;6.50;99861;;;;573032;241;24106;-75
2023/04/23 03:43:21;;;;;;;13.90;6.03;;;7.40;99.90;6.50;99861;;;;572832;246;24087;-74
2023/04/23 03:45:49;;;;;;;10.57;5.47;;;7.40;99.90;6.60;99857;;;;572781;246;24059;-76
2023/04/23 03:48:17;;;;;;;9.27;6.03;;;7.50;99.90;6.60;99856;;;;572703;246;24118;-75
2023/04/23 03:50:45;;;;;;;6.63;4.83;;;7.40;99.90;6.60;99854;;;;572814;246;25111;-73
2023/04/23 03:53:13;;;;;;;11.50;7.40;;;7.50;99.90;6.70;99860;;;;568164;246;46518;-75
2023/04/23 03:55:41;;;;;;;7.57;5.50;;;7.50;99.90;6.60;99862;;;;573104;246;24210;-75
2023/04/23 03:58:10;;;;;;;9.47;5.90;;;7.60;99.90;6.70;99855;;;;574443;246;24135;-75
2023/04/23 04:00:38;;;;;;;12.47;5.97;;;7.50;99.90;6.80;99857;;;;573912;246;24107;-75
2023/04/23 04:03:07;;;;;;;7.60;5.37;;;7.60;99.90;6.90;99857;;;;573603;246;24058;-75
2023/04/23 04:05:33;;;;;;;9.13;5.63;;;7.70;99.90;6.90;99854;;;;573317;246;24150;-73
2023/04/23 04:08:03;;;;;;;9.90;5.60;;;7.70;99.90;7.00;99862;;;;573315;246;24080;-74
2023/04/23 04:10:30;;;;;;;12.13;6.63;;;7.80;99.90;7.00;99861;;;;573223;246;24083;-74
2023/04/23 04:12:58;;;;;;;9.60;6.10;;;7.80;99.90;7.00;99851;;;;573351;246;24132;-74
2023/04/23 04:15:26;;;;;;;10.47;5.43;;;7.80;99.90;7.10;99847;;;;573006;246;24081;-74
2023/04/23 04:17:54;;;;;;;12.03;6.47;;;7.90;99.90;7.20;99851;;;;573432;246;24107;-75
2023/04/23 04:20:21;;;;;;;9.93;6.00;;;7.90;99.90;7.30;99853;;;;573089;246;24084;-74
2023/04/23 04:22:49;;;;;;;11.07;6.43;;;8.00;99.90;7.30;99846;;;;572936;246;24124;-73
2023/04/23 04:25:17;;;;;;;12.90;7.73;;;8.10;99.90;7.40;99847;;;;573439;246;24072;-75
2023/04/23 04:27:45;;;;;;;13.53;9.27;;;8.20;99.90;7.50;99846;;;;573412;246;24062;-76
2023/04/23 04:30:13;;;;;;;24.07;17.03;;;8.30;99.90;7.70;99840;;;;568511;246;35220;-76
2023/04/23 04:32:44;;;;;;;19.63;13.93;;;8.50;99.90;8.70;99843;;;;573337;246;24066;-74
2023/04/23 04:35:09;;;;;;;18.60;12.20;;;9.30;99.90;10.40;99851;;;;573249;246;24074;-74
2023/04/23 04:37:37;;;;;;;16.83;10.87;;;10.90;99.90;12.10;99853;;;;573123;246;24096;-74
2023/04/23 04:40:08;;;;;;;15.50;9.83;;;12.70;99.90;13.50;99853;;;;573570;246;24087;-75
2023/04/23 04:42:33;;;;;;;15.33;9.77;;;14.20;99.90;14.90;99853;;;;573238;246;24083;-76
2023/04/23 04:45:01;;;;;;;12.23;8.33;;;15.60;99.90;16.00;99862;;;;572779;246;24066;-76
2023/04/23 04:47:30;;;;;;;10.20;7.50;;;16.80;99.90;17.10;99858;;;;572655;246;24066;-76
2023/04/23 04:49:58;;;;;;;10.93;6.87;;;17.90;99.90;18.00;99858;;;;572729;246;24077;-74
2023/04/23 04:52:25;;;;;;;12.30;7.80;;;18.90;97.90;18.90;99857;;;;572734;246;24091;-74
2023/04/23 04:54:53;;;;;;;8.23;7.33;;;20.60;89.70;19.60;99852;;;;573197;246;24193;-74
2023/04/23 04:57:21;;;;;;;10.50;7.47;;;20.50;89.60;20.30;99854;;;;573176;246;24175;-75
2023/04/23 04:59:49;;;;;;;11.43;7.90;;;21.30;85.00;21.10;99855;;;;573801;246;23105;-75
2023/04/23 05:02:20;;;;;;;8.43;7.53;;;22.10;80.60;21.80;99862;;;;572767;246;24130;-75
2023/04/23 05:04:45;;;;;;;9.30;8.20;;;22.80;75.00;22.60;99854;;;;568240;246;24123;-74
2023/04/23 05:07:13;;;;;;;9.67;7.17;;;23.50;69.30;23.30;99855;;;;572774;246;24115;-76
2023/04/23 05:09:42;;;;;;;11.20;8.00;;;24.90;63.10;24.10;99851;;;;574211;246;23080;-75
2023/04/23 05:12:10;;;;;;;7.77;6.97;;;24.80;63.00;24.70;99852;;;;573934;246;23078;-77
2023/04/23 05:14:37;;;;;;;11.47;7.67;;;25.50;60.00;25.10;99858;;;;574002;246;23079;-76
2023/04/23 05:17:06;;;;;;;12.37;8.83;;;26.70;56.80;25.90;99853;;;;573377;246;25172;-76
2023/04/23 05:19:34;;;;;;;11.80;7.87;;;26.60;56.00;26.30;99853;;;;573370;246;23147;-78
2023/04/23 05:22:02;;;;;;;11.53;7.07;;;27.20;54.20;26.60;99855;;;;573299;246;23154;-76
2023/04/23 05:24:30;;;;;;;12.70;7.80;;;27.50;52.60;26.80;99864;;;;573762;246;23064;-75
2023/04/23 05:26:58;;;;;;;9.17;7.50;;;27.80;51.80;27.20;99855;;;;573502;246;23074;-74
2023/04/23 05:29:26;;;;;;;11.10;7.20;;;28.10;51.10;27.80;99862;;;;573464;246;24117;-80
2023/04/23 05:31:54;;;;;;;8.37;7.60;;;29.00;48.90;28.30;99864;;;;573925;246;23113;-76
2023/04/23 05:34:22;;;;;;;10.47;7.27;;;29.00;48.90;28.40;99860;;;;573468;246;23073;-79
2023/04/23 05:36:50;;;;;;;9.27;7.07;;;29.20;48.60;28.90;99854;;;;573531;246;23088;-79
2023/04/23 05:39:18;;;;;;;8.27;7.47;;;29.70;48.20;29.50;99865;;;;573360;246;23068;-80
2023/04/23 05:41:46;;;;;;;10.15;7.15;;;30.30;47.50;30.20;99861;;;;573490;246;24086;-79
2023/04/23 05:44:14;;;;;;;9.55;8.48;;;30.90;45.90;30.70;99863;;;;573303;246;23125;-78
2023/04/23 05:46:42;;;;;;;9.82;7.85;;;31.40;45.60;31.20;99866;;;;572951;246;23119;-79
2023/04/23 05:49:10;;;;;;;10.85;8.32;;;31.90;44.70;31.60;99861;;;;572910;246;23090;-76
2023/04/23 05:51:38;;;;;;;9.02;8.13;;;32.30;43.70;32.00;99865;;;;572745;246;23206;-80
2023/04/23 05:54:06;;;;;;;8.77;7.95;;;32.70;43.70;32.50;99862;;;;573211;246;23110;-78
2023/04/23 05:56:33;;;;;;;7.97;7.18;;;33.20;42.60;32.90;99870;;;;573138;246;24220;-80
2023/04/23 05:59:01;;;;;;;7.87;7.07;;;33.60;42.60;33.30;99869;;;;572956;246;23136;-81
2023/04/23 06:01:29;;;;;;;7.93;7.22;;;34.00;41.50;33.60;99863;;;;572886;246;23065;-80
2023/04/23 06:03:57;;;;;;;7.87;7.12;;;34.30;40.80;33.70;99860;;;;572759;246;23070;-80
2023/04/23 06:06:29;;;;;;;7.60;6.90;;;34.40;40.30;34.00;99861;;;;573092;246;23127;-77
2023/04/23 06:08:53;;;;;;;10.20;8.02;;;34.70;39.90;34.50;99861;;;;572795;246;23081;-80
2023/04/23 06:11:24;;;;;;;9.45;7.05;;;35.10;39.50;34.60;99857;;;;573229;246;24063;-82
2023/04/23 06:13:49;;;;;;;9.85;6.87;;;35.30;38.90;34.90;99860;;;;572958;246;23136;-80
2023/04/23 06:16:18;;;;;;;7.50;6.72;;;35.70;38.30;34.90;99856;;;;581501;246;23172;-78
2023/04/23 06:18:45;;;;;;;7.68;6.95;;;35.60;38.20;34.90;99854;;;;573150;246;23191;-82
2023/04/23 06:21:13;;;;;;;10.93;7.35;;;35.70;38.90;35.50;99858;;;;574736;246;23088;-81
2023/04/23 06:23:41;;;;;;;7.60;6.90;;;36.00;38.50;35.90;99858;;;;574223;246;23044;-80
2023/04/23 06:26:09;;;;;;;7.62;6.87;;;36.40;37.70;36.30;99850;;;;573629;246;24113;-82
2023/04/23 06:28:38;;;;;;;8.95;7.65;;;36.90;37.50;36.30;99849;;;;573682;246;23107;-81
2023/04/23 06:31:06;;;;;;;10.48;7.62;;;37.20;36.70;36.60;99852;;;;573488;246;23125;-80
2023/04/23 06:33:36;;;;;;;8.52;7.53;;;37.20;36.60;36.40;99856;;;;573771;246;23136;-81
2023/04/23 06:36:02;;;;;;;9.43;7.45;;;37.10;36.60;36.50;99848;;;;573914;246;23131;-77
2023/04/23 06:38:29;;;;;;;9.77;8.82;;;37.20;36.60;36.60;99859;;;;572869;246;23129;-75
2023/04/23 06:40:57;;;;;;;14.30;8.15;;;37.20;36.90;36.70;99866;;;;573158;246;23115;-80
2023/04/23 06:43:25;;;;;;;7.87;7.10;;;37.40;36.80;37.00;99862;;;;573097;246;23088;-78
2023/04/23 06:45:55;;;;;;;7.97;7.28;;;37.90;36.20;37.30;99853;;;;573346;246;23153;-78
2023/04/23 06:48:25;;;;;;;8.05;7.37;;;37.80;36.10;37.50;99864;;;;573678;246;23059;-78
2023/04/23 06:50:50;;;;;;;7.78;7.07;;;38.00;36.20;37.70;99862;;;;573752;246;23095;-76
2023/04/23 06:53:18;;;;;;;8.25;7.45;;;38.20;35.90;37.80;99861;;;;573671;246;23109;-79
2023/04/23 06:55:46;;;;;;;8.55;7.07;;;38.30;35.40;38.10;99865;;;;573519;246;24181;-78
2023/04/23 06:58:13;;;;;;;12.50;8.27;;;38.50;35.00;38.30;99860;;;;574129;246;23140;-77
2023/04/23 07:00:42;;;;;;;9.90;7.62;;;39.10;35.10;38.70;99858;;;;573487;246;24083;-79
2023/04/23 07:03:13;;;;;;;8.50;7.80;;;39.10;35.00;39.10;99856;;;;573176;246;23115;-80
2023/04/23 07:05:38;;;;;;;8.75;7.97;;;39.40;34.80;39.40;99856;;;;572430;246;23178;-75
2023/04/23 07:08:06;;;;;;;8.57;7.70;;;39.90;34.50;40.20;99853;;;;573592;246;23070;-76
2023/04/23 07:10:35;;;;;;;8.57;7.87;;;40.90;33.70;40.40;99848;;;;573069;246;23065;-78
2023/04/23 07:13:03;;;;;;;11.38;8.63;;;40.80;33.50;40.40;99848;;;;573375;246;23106;-79
2023/04/23 07:15:31;;;;;;;8.68;7.93;;;40.80;33.40;40.20;99849;;;;573285;246;23119;-78
2023/04/23 07:17:59;;;;;;;9.00;8.10;;;40.70;33.40;39.60;99843;;;;573455;246;23107;-79
2023/04/23 07:20:27;;;;;;;9.00;8.10;;;40.30;33.60;38.80;99842;;;;573024;246;23161;-77
2023/04/23 07:22:56;;;;;;;10.25;9.30;;;39.30;34.50;38.60;99841;;;;573699;246;23162;-77
2023/04/23 07:25:26;;;;;;;8.93;8.02;;;39.30;34.50;38.90;99848;;;;572913;246;24121;-78
2023/04/23 07:27:55;;;;;;;8.25;7.55;;;39.40;34.20;39.00;99850;;;;572647;246;23102;-77
2023/04/23 07:30:19;;;;;;;8.77;8.00;;;39.50;34.00;39.20;99848;;;;572358;246;24134;-77
2023/04/23 07:32:47;;;;;;;9.00;8.07;;;39.60;33.90;39.60;99841;;;;574134;246;23072;-76
2023/04/23 07:35:15;;;;;;;7.90;7.10;;;39.90;33.60;39.60;99837;;;;573894;246;23100;-78
2023/04/23 07:37:44;;;;;;;8.55;7.68;;;40.20;33.60;39.80;99826;;;;573567;246;23073;-76
2023/04/23 07:40:13;;;;;;;10.98;8.10;;;40.10;33.50;39.60;99824;;;;573682;246;23072;-77
2023/04/23 07:42:40;;;;;;;10.70;7.28;;;40.00;33.40;39.80;99823;;;;573364;246;23064;-76
2023/04/23 07:45:12;;;;;;;8.18;7.40;;;40.20;33.70;39.90;99820;;;;573685;246;23120;-77
2023/04/23 07:47:36;;;;;;;7.32;6.50;;;40.30;33.30;40.10;99820;;;;568275;246;23114;-77
2023/04/23 07:50:08;;;;;;;8.73;7.93;;;40.50;33.80;40.70;99807;;;;573629;246;23082;-79
2023/04/23 07:52:32;;;;;;;7.47;6.87;;;41.10;33.10;41.10;99809;;;;573015;246;23155;-77
2023/04/23 07:55:00;;;;;;;10.38;7.50;;;41.40;32.70;41.60;99820;;;;573565;246;23068;-80
2023/04/23 07:57:28;;;;;;;8.05;7.20;;;41.90;33.00;42.30;99811;;;;573562;246;23127;-79
2023/04/23 07:59:56;;;;;;;8.90;8.15;;;42.50;32.60;41.70;99810;;;;573725;246;23071;-79
2023/04/23 08:02:26;;;;;;;8.32;7.53;;;42.50;32.50;41.30;99807;;;;573614;246;23066;-79
2023/04/23 08:04:52;;;;;;;8.15;7.45;;;42.10;32.10;41.50;99804;;;;573713;246;23093;-81
2023/04/23 08:07:20;;;;;;;9.50;7.57;;;42.20;32.10;41.70;99821;;;;582358;243;23146;-79
2023/04/23 08:09:48;;;;;;;9.48;7.47;;;42.40;32.00;41.60;99804;;;;573262;246;23099;-82
2023/04/23 08:12:16;;;;;;;9.30;7.50;;;42.30;32.40;42.20;99799;;;;573013;246;23089;-78
2023/04/23 08:14:46;;;;;;;8.40;7.60;;;42.70;31.70;42.50;99801;;;;573390;246;23103;-81
2023/04/23 08:17:11;;;;;;;8.32;7.62;;;43.10;32.00;42.90;99800;;;;582167;246;23157;-80
2023/04/23 08:19:40;;;;;;;7.93;7.22;;;43.50;30.90;42.90;99804;;;;573588;246;23147;-77
2023/04/23 08:22:09;;;;;;;8.52;7.90;;;43.50;30.80;43.20;99802;;;;574030;246;23139;-81
2023/04/23 08:24:36;;;;;;;8.00;7.07;;;43.80;30.90;43.20;99795;;;;574198;246;23071;-82
2023/04/23 08:27:04;;;;;;;8.75;7.90;;;43.90;30.70;43.70;99786;;;;574327;246;23126;-80
2023/04/23 08:29:32;;;;;;;8.05;7.35;;;44.40;30.60;43.80;99794;;;;574136;246;23132;-79
2023/04/23 08:32:00;;;;;;;8.75;7.57;;;44.60;30.00;43.90;99789;;;;573483;246;23111;-81
2023/04/23 08:34:28;;;;;;;8.57;7.87;;;44.60;30.80;43.70;99788;;;;573246;246;23053;-80
2023/04/23 08:36:56;;;;;;;7.93;7.22;;;44.60;30.30;43.70;99791;;;;573292;246;23085;-80
2023/04/23 08:39:26;;;;;;;9.80;7.95;;;44.60;30.60;44.10;99787;;;;568334;246;35458;-83
2023/04/23 08:41:58;;;;;;;8.35;7.65;;;45.10;30.20;44.00;99783;;;;573533;246;23069;-85
2023/04/23 08:44:26;;;;;;;9.13;7.82;;;45.00;30.20;44.00;99788;;;;570972;246;24084;-81
2023/04/23 08:46:51;;;;;;;8.40;7.80;;;45.10;30.00;43.20;99790;;;;573158;246;23073;-81
2023/04/23 08:49:22;;;;;;;8.60;7.70;;;44.60;30.40;43.60;99782;;;;574549;246;23060;-84
2023/04/23 08:51:53;;;;;;;8.55;7.12;;;44.70;30.40;44.10;99772;;;;574537;246;26284;-82
2023/04/23 08:54:27;;;;;;;7.65;7.05;;;45.60;30.30;44.70;99771;;;;573447;246;23081;-77
2023/04/23 08:56:59;;;;;;;8.50;6.90;;;46.10;29.90;45.00;99765;;;;574324;246;23053;-83
2023/04/23 08:59:26;;;;;;;12.85;7.55;;;46.00;29.80;44.70;99776;;;;583560;245;23119;-77
2023/04/23 09:01:58;;;;;;;8.25;7.43;;;45.90;30.20;45.40;99760;;;;573579;246;23153;-78
2023/04/23 09:04:24;;;;;;;10.48;7.72;;;46.80;29.60;45.60;99772;;;;573386;246;24137;-77
2023/04/23 09:06:51;;;;;;;7.78;7.10;;;46.70;29.50;44.80;99772;;;;573492;246;24414;-78
2023/04/23 09:09:22;;;;;;;7.87;7.00;;;46.40;29.20;43.90;99773;;;;573491;246;23069;-79
2023/04/23 09:11:47;;;;;;;7.18;6.68;;;45.30;30.00;43.70;99765;;;;572079;246;23084;-79
2023/04/23 09:14:20;;;;;;;8.00;7.18;;;45.40;30.00;44.00;99759;;;;573459;246;23054;-77
2023/04/23 09:16:44;;;;;;;8.90;7.05;;;45.40;30.00;44.30;99764;;;;572760;246;23122;-78
2023/04/23 09:19:16;;;;;;;7.65;6.47;;;45.60;29.80;43.80;99772;;;;573382;246;23063;-81
2023/04/23 09:21:40;;;;;;;7.78;7.10;;;45.40;30.00;43.90;99758;;;;577700;246;23087;-78
2023/04/23 09:24:12;;;;;;;6.85;6.20;;;45.50;30.30;44.10;99765;;;;572714;246;23098;-78
2023/04/23 09:26:45;;;;;;;13.00;6.57;;;45.50;30.30;44.80;99756;;;;572912;246;23166;-79
2023/04/23 09:29:16;;;;;;;7.87;5.78;;;46.00;29.50;43.90;99757;;;;572585;246;23146;-77
2023/04/23 09:31:41;;;;;;;8.57;5.78;;;45.60;29.30;43.30;99750;;;;571377;246;23142;-76
2023/04/23 09:34:09;;;;;;;8.70;6.18;;;45.00;29.90;44.00;99762;;;;573264;246;23116;-76
2023/04/23 09:36:37;;;;;;;7.05;5.10;;;45.40;30.00;44.70;99755;;;;573298;246;23132;-76
2023/04/23 09:39:05;;;;;;;5.53;5.00;;;46.00;29.70;45.20;99753;;;;572726;246;23098;-75
2023/04/23 09:41:33;;;;;;;6.60;5.90;;;46.60;29.20;45.20;99758;;;;572845;246;23094;-74
2023/04/23 09:44:01;;;;;;;6.37;5.85;;;46.90;29.10;45.70;99750;;;;568196;246;46094;-74
2023/04/23 09:46:38;;;;;;;6.37;5.78;;;47.30;28.90;45.10;99748;;;;573168;246;24151;-80
2023/04/23 09:49:06;;;;;;;9.52;6.22;;;47.00;29.20;45.30;99745;;;;568117;244;35136;-76
2023/04/23 09:51:42;;;;;;;7.07;5.60;;;47.40;28.80;44.50;99740;;;;573111;246;23093;-78
2023/04/23 09:54:17;;;;;;;9.05;5.95;;;45.80;29.00;43.60;99733;;;;572927;245;23079;-78
2023/04/23 09:56:45;;;;;;;5.82;5.40;;;45.80;29.00;43.20;99728;;;;573923;246;23124;-77
2023/04/23 09:59:22;;;;;;;6.03;5.37;;;45.30;29.60;43.10;99721;;;;573530;246;23089;-76
2023/04/23 10:01:51;;;;;;;5.55;5.05;;;45.10;29.70;43.20;99724;;;;573874;246;23089;-76
2023/04/23 10:04:21;;;;;;;5.90;5.37;;;44.80;29.70;42.70;99722;;;;573802;246;23101;-79
2023/04/23 10:06:54;;;;;;;8.27;5.80;;;44.80;29.70;41.90;99707;;;;573624;246;23057;-77
2023/04/23 10:09:23;;;;;;;5.43;5.05;;;44.20;30.00;40.50;99714;;;;573328;246;23096;-74
2023/04/23 10:11:56;;;;;;;8.10;5.28;;;43.30;30.10;38.90;99703;;;;573736;246;24090;-75
2023/04/23 10:14:24;;;;;;;6.32;5.00;;;41.80;30.80;37.00;99703;;;;573433;246;23114;-78
2023/04/23 10:17:01;;;;;;;7.50;5.15;;;40.10;31.70;35.70;99698;;;;571816;246;24144;-74
2023/04/23 10:19:32;;;;;;;7.10;5.07;;;38.60;32.90;33.90;99695;;;;573109;246;23094;-76
2023/04/23 10:21:59;;;;;;;5.55;5.05;;;36.90;34.30;32.60;99687;;;;572966;246;23079;-75
2023/04/23 10:24:27;;;;;;;4.95;4.60;;;35.20;35.60;31.00;99682;;;;568922;246;23120;-75
2023/04/23 10:26:52;;;;;;;9.25;5.10;;;33.50;37.10;29.80;99676;;;;573530;246;23159;-80
2023/04/23 10:29:20;;;;;;;9.52;5.18;;;32.10;38.80;29.00;99684;;;;573593;240;23085;-79
2023/04/23 10:31:48;;;;;;;6.00;4.60;;;30.90;39.70;28.20;99672;;;;573272;246;24065;-77
2023/04/23 10:34:16;;;;;;;11.25;4.90;;;29.90;40.80;27.70;99667;;;;572918;246;23076;-82
2023/04/23 10:36:45;;;;;;;10.85;5.50;;;28.50;43.20;27.10;99662;;;;573947;246;23079;-75
2023/04/23 10:39:16;;;;;;;7.43;5.10;;;28.30;43.10;26.80;99663;;;;573828;246;24122;-75
2023/04/23 10:41:41;;;;;;;10.40;5.40;;;27.90;43.90;26.10;99662;;;;571342;246;23087;-78
2023/04/23 10:44:15;;;;;;;6.30;4.40;;;27.20;44.00;25.60;99640;;;;573157;246;23072;-80
2023/04/23 10:46:39;;;;;;;8.17;4.47;;;26.60;44.60;25.20;99636;;;;572860;246;23156;-75
2023/04/23 10:49:14;;;;;;;13.50;5.33;;;26.10;44.60;24.70;99637;;;;572375;246;23090;-81
2023/04/23 10:51:38;;;;;;;12.30;4.53;;;25.50;45.80;24.30;99646;;;;572591;246;24111;-83
2023/04/23 10:54:09;;;;;;;5.53;4.10;;;25.10;47.10;24.10;99643;;;;573446;246;23092;-80
2023/04/23 10:56:34;;;;;;;4.97;4.57;;;24.70;47.80;23.90;99632;;;;582180;246;23134;-82
2023/04/23 10:59:02;;;;;;;7.17;4.10;;;24.30;49.20;23.70;99638;;;;573390;246;23088;-83
2023/04/23 11:01:33;;;;;;;15.93;5.40;;;24.20;49.10;23.50;99634;;;;573503;246;23083;-83
2023/04/23 11:03:59;;;;;;;12.53;5.00;;;24.10;48.70;23.20;99638;;;;581744;246;23094;-78
2023/04/23 11:06:48;;;;;;;6.27;4.30;;;23.80;48.30;22.90;99635;;;;574083;246;23146;-79
2023/04/23 11:09:34;;;;;;;6.57;4.50;;;23.50;48.20;22.70;99628;;;;583103;245;24090;-78
2023/04/23 11:12:02;;;;;;;10.27;4.43;;;23.20;48.60;22.50;99624;;;;582887;245;24068;-80
2023/04/23 11:14:45;;;;;;;11.17;3.63;;;23.00;48.90;22.40;99609;;;;574255;246;24050;-82
2023/04/23 11:17:16;;;;;;;13.47;5.17;;;22.90;49.30;22.30;99595;;;;573846;246;24133;-79
2023/04/23 11:19:41;;;;;;;8.00;4.33;;;22.80;49.00;22.20;99611;;;;580046;246;24066;-85
2023/04/23 11:22:18;;;;;;;6.73;4.23;;;22.70;49.80;22.10;99606;;;;573641;240;24126;-81
2023/04/23 11:24:44;;;;;;;10.27;4.27;;;22.60;50.60;22.10;99595;;;;573995;246;24126;-81
2023/04/23 11:27:14;;;;;;;4.13;3.67;;;22.60;50.70;22.10;99612;;;;573562;246;24066;-77